createdAt,value
2018-08-25T00:00:28.626Z,19.90
2018-08-25T00:02:56.822Z,19.90
2018-08-25T00:05:25.063Z,19.80
2018-08-25T00:07:53.334Z,19.80
2018-08-25T00:10:21.586Z,19.80
2018-08-25T00:12:49.878Z,19.80
2018-08-25T00:15:18.176Z,19.80
2018-08-25T00:17:46.735Z,19.80
2018-08-25T00:20:15.004Z,19.80
2018-08-25T00:22:43.525Z,19.80
2018-08-25T00:25:11.992Z,19.80
2018-08-25T00:27:40.207Z,19.80
2018-08-25T00:30:13.754Z,19.80
2018-08-25T00:32:41.989Z,19.80
2018-08-25T00:35:10.265Z,19.80
2018-08-25T00:37:38.494Z,19.80
2018-08-25T00:40:06.756Z,19.80
2018-08-25T00:42:35.306Z,19.80
2018-08-25T00:45:03.498Z,19.80
2018-08-25T00:47:31.741Z,19.80
2018-08-25T00:50:00.059Z,19.70
2018-08-25T00:52:28.283Z,19.80
2018-08-25T00:54:56.567Z,19.80
2018-08-25T00:57:25.534Z,19.80
2018-08-25T00:59:53.792Z,19.80
2018-08-25T01:02:22.010Z,19.90
2018-08-25T01:04:50.253Z,19.90
2018-08-25T01:07:18.538Z,19.90
2018-08-25T01:09:46.747Z,19.90
2018-08-25T01:12:14.966Z,19.80
2018-08-25T01:14:43.253Z,19.90
2018-08-25T01:17:11.480Z,19.80
2018-08-25T01:19:39.713Z,19.80
2018-08-25T01:22:07.966Z,19.80
2018-08-25T01:24:36.193Z,19.80
2018-08-25T01:27:04.488Z,19.80
2018-08-25T01:29:32.759Z,19.80
2018-08-25T01:32:01.003Z,19.80
2018-08-25T01:34:29.239Z,19.80
2018-08-25T01:36:57.723Z,19.70
2018-08-25T01:39:25.953Z,19.70
2018-08-25T01:41:54.226Z,19.70
2018-08-25T01:44:22.453Z,19.70
2018-08-25T01:46:50.659Z,19.70
2018-08-25T01:49:18.912Z,19.70
2018-08-25T01:51:47.158Z,19.70
2018-08-25T01:54:15.419Z,19.70
2018-08-25T01:56:43.630Z,19.70
2018-08-25T01:59:11.928Z,19.70
2018-08-25T02:01:40.130Z,19.70
2018-08-25T02:04:08.321Z,19.70
2018-08-25T02:06:36.533Z,19.70
2018-08-25T02:09:08.221Z,19.70
2018-08-25T02:11:36.451Z,19.70
2018-08-25T02:14:04.746Z,19.60
2018-08-25T02:16:32.937Z,19.60
2018-08-25T02:19:01.312Z,19.60
2018-08-25T02:21:29.593Z,19.50
2018-08-25T02:23:57.875Z,19.50
2018-08-25T02:26:26.082Z,19.60
2018-08-25T02:28:54.511Z,19.50
2018-08-25T02:31:22.710Z,19.50
2018-08-25T02:33:50.946Z,19.50
2018-08-25T02:36:19.152Z,19.40
2018-08-25T02:38:47.703Z,19.40
2018-08-25T02:41:15.915Z,19.50
2018-08-25T02:43:44.149Z,19.40
2018-08-25T02:46:12.366Z,19.40
2018-08-25T02:48:40.621Z,19.40
2018-08-25T02:51:08.840Z,19.40
2018-08-25T02:53:37.113Z,19.40
2018-08-25T02:56:05.349Z,19.30
2018-08-25T02:58:34.902Z,19.30
2018-08-25T03:01:03.142Z,19.30
2018-08-25T03:03:31.349Z,19.30
2018-08-25T03:05:59.543Z,19.20
2018-08-25T03:08:27.794Z,19.20
2018-08-25T03:10:56.037Z,19.10
2018-08-25T03:13:24.237Z,19.10
2018-08-25T03:15:52.477Z,19.00
2018-08-25T03:18:20.742Z,18.90
2018-08-25T03:20:48.968Z,18.90
2018-08-25T03:23:17.230Z,18.80
2018-08-25T03:25:45.475Z,18.80
2018-08-25T03:28:13.678Z,18.80
2018-08-25T03:30:41.874Z,18.80
2018-08-25T03:33:10.122Z,18.70
2018-08-25T03:35:38.306Z,18.60
2018-08-25T03:38:06.573Z,18.60
2018-08-25T03:40:34.765Z,18.60
2018-08-25T03:43:02.986Z,18.50
2018-08-25T03:45:31.198Z,18.50
2018-08-25T03:47:59.407Z,18.50
2018-08-25T03:50:27.641Z,18.50
2018-08-25T03:52:55.837Z,18.40
2018-08-25T03:55:24.142Z,18.40
2018-08-25T03:57:52.290Z,18.30
2018-08-25T04:00:20.562Z,18.20
2018-08-25T04:02:48.806Z,18.20
2018-08-25T04:05:17.113Z,18.10
2018-08-25T04:07:45.331Z,18.00
2018-08-25T04:10:13.536Z,17.90
2018-08-25T04:12:41.858Z,17.90
2018-08-25T04:15:10.091Z,17.80
2018-08-25T04:17:38.365Z,17.80
2018-08-25T04:20:06.675Z,17.70
2018-08-25T04:22:34.881Z,17.60
2018-08-25T04:25:03.071Z,17.60
2018-08-25T04:27:31.300Z,17.50
2018-08-25T04:29:59.542Z,17.50
2018-08-25T04:32:27.750Z,17.40
2018-08-25T04:34:55.967Z,17.40
2018-08-25T04:37:24.162Z,17.40
2018-08-25T04:39:52.393Z,17.30
2018-08-25T04:42:20.646Z,17.30
2018-08-25T04:44:48.876Z,17.20
2018-08-25T04:47:17.176Z,17.10
2018-08-25T04:49:45.414Z,17.10
2018-08-25T04:52:13.672Z,16.90
2018-08-25T04:54:41.899Z,16.80
2018-08-25T04:57:10.178Z,16.60
2018-08-25T04:59:38.412Z,16.40
2018-08-25T05:02:06.608Z,16.20
2018-08-25T05:04:34.819Z,16.10
2018-08-25T05:07:03.047Z,16.10
2018-08-25T05:09:31.235Z,16.00
2018-08-25T05:11:59.473Z,15.90
2018-08-25T05:14:27.708Z,15.80
2018-08-25T05:16:55.971Z,15.70
2018-08-25T05:19:37.266Z,15.70
2018-08-25T05:22:05.551Z,15.60
2018-08-25T05:24:33.743Z,15.60
2018-08-25T05:27:01.965Z,15.60
2018-08-25T05:29:30.152Z,15.60
2018-08-25T05:31:58.349Z,15.70
2018-08-25T05:34:26.576Z,15.80
2018-08-25T05:38:05.465Z,15.80
2018-08-25T05:40:59.610Z,15.80
2018-08-25T05:43:27.942Z,15.70
2018-08-25T05:45:56.140Z,15.70
2018-08-25T05:48:24.353Z,15.70
2018-08-25T05:50:52.597Z,15.80
2018-08-25T05:53:20.862Z,15.80
2018-08-25T05:55:49.117Z,15.80
2018-08-25T05:58:17.371Z,15.90
2018-08-25T06:00:45.637Z,15.90
2018-08-25T06:03:13.872Z,16.00
2018-08-25T06:05:42.117Z,16.00
2018-08-25T06:08:10.450Z,16.10
2018-08-25T06:10:38.663Z,16.10
2018-08-25T06:13:06.980Z,16.00
2018-08-25T06:15:35.201Z,15.90
2018-08-25T06:18:03.463Z,15.90
2018-08-25T06:20:31.746Z,15.90
2018-08-25T06:22:59.970Z,16.00
2018-08-25T06:25:28.203Z,16.00
2018-08-25T06:27:56.477Z,15.90
2018-08-25T06:30:24.726Z,15.80
2018-08-25T06:32:52.945Z,15.80
2018-08-25T06:35:21.249Z,16.00
2018-08-25T06:37:49.463Z,16.10
2018-08-25T06:40:17.710Z,16.10
2018-08-25T06:42:45.921Z,16.30
2018-08-25T06:45:14.218Z,16.50
2018-08-25T06:47:42.450Z,16.60
2018-08-25T06:50:10.684Z,16.60
2018-08-25T06:52:38.894Z,16.70
2018-08-25T06:55:07.105Z,16.80
2018-08-25T06:57:35.347Z,16.90
2018-08-25T07:00:03.580Z,16.80
2018-08-25T07:02:31.765Z,16.80
2018-08-25T07:04:59.975Z,17.00
2018-08-25T07:07:28.196Z,16.90
2018-08-25T07:09:56.403Z,17.00
2018-08-25T07:12:24.619Z,17.10
2018-08-25T07:14:52.918Z,17.40
2018-08-25T07:17:21.106Z,17.50
2018-08-25T07:19:49.619Z,17.60
2018-08-25T07:22:17.844Z,17.70
2018-08-25T07:24:46.099Z,17.90
2018-08-25T07:27:14.345Z,18.10
2018-08-25T07:29:42.551Z,18.20
2018-08-25T07:32:10.892Z,18.10
2018-08-25T07:34:39.051Z,17.90
2018-08-25T07:37:07.286Z,17.80
2018-08-25T07:39:35.548Z,17.90
2018-08-25T07:42:03.778Z,18.00
2018-08-25T07:44:32.018Z,18.10
2018-08-25T07:47:00.287Z,17.90
2018-08-25T07:49:28.617Z,17.90
2018-08-25T07:51:56.822Z,17.80
2018-08-25T07:54:25.131Z,17.60
2018-08-25T07:56:53.306Z,17.60
2018-08-25T07:59:21.629Z,17.60
2018-08-25T08:01:49.782Z,17.90
2018-08-25T08:04:18.002Z,18.10
2018-08-25T08:06:46.238Z,18.40
2018-08-25T08:09:14.486Z,18.50
2018-08-25T08:11:42.788Z,18.50
2018-08-25T08:14:11.067Z,18.40
2018-08-25T08:16:39.350Z,18.40
2018-08-25T08:19:07.653Z,18.40
2018-08-25T08:21:35.906Z,18.30
2018-08-25T08:24:04.529Z,18.30
2018-08-25T08:26:32.770Z,18.50
2018-08-25T08:29:01.002Z,19.00
2018-08-25T08:31:29.317Z,19.20
2018-08-25T08:33:57.583Z,19.20
2018-08-25T08:36:25.833Z,19.90
2018-08-25T08:38:54.246Z,20.70
2018-08-25T08:41:22.587Z,21.20
2018-08-25T08:43:51.275Z,21.60
2018-08-25T08:46:24.992Z,22.10
2018-08-25T08:48:53.393Z,21.90
2018-08-25T08:51:22.429Z,21.40
2018-08-25T08:53:51.151Z,20.90
2018-08-25T08:56:19.358Z,20.20
2018-08-25T08:58:47.594Z,19.80
2018-08-25T09:01:15.868Z,19.80
2018-08-25T09:03:46.362Z,20.00
2018-08-25T09:06:14.598Z,20.10
2018-08-25T09:08:42.850Z,20.20
2018-08-25T09:11:11.095Z,20.30
2018-08-25T09:13:39.501Z,19.90
2018-08-25T09:16:07.783Z,19.50
2018-08-25T09:18:36.821Z,19.70
2018-08-25T09:21:05.152Z,19.80
2018-08-25T09:23:33.470Z,19.70
2018-08-25T09:26:01.772Z,19.40
2018-08-25T09:28:29.992Z,19.50
2018-08-25T09:30:58.344Z,19.60
2018-08-25T09:33:26.534Z,19.70
2018-08-25T09:35:54.922Z,19.60
2018-08-25T09:38:23.082Z,19.50
2018-08-25T09:43:34.457Z,19.10
2018-08-25T09:46:02.721Z,19.10
2018-08-25T09:48:30.930Z,19.20
2018-08-25T09:50:59.347Z,19.30
2018-08-25T09:53:27.680Z,19.10
2018-08-25T09:55:55.944Z,19.00
2018-08-25T09:58:24.253Z,18.90
2018-08-25T10:00:58.102Z,18.90
2018-08-25T10:03:26.707Z,19.00
2018-08-25T10:05:54.986Z,19.20
2018-08-25T10:08:23.332Z,19.20
2018-08-25T10:10:51.598Z,19.30
2018-08-25T10:13:21.116Z,19.20
2018-08-25T10:15:49.381Z,19.30
2018-08-25T10:18:17.729Z,19.40
2018-08-25T10:20:46.010Z,19.60
2018-08-25T10:23:15.486Z,19.80
2018-08-25T10:25:43.678Z,19.60
2018-08-25T10:28:12.944Z,19.40
2018-08-25T10:30:41.164Z,19.50
2018-08-25T10:33:09.379Z,19.50
2018-08-25T10:35:37.897Z,19.40
2018-08-25T10:38:06.417Z,19.40
2018-08-25T10:40:34.739Z,19.40
2018-08-25T10:43:02.966Z,19.30
2018-08-25T10:45:31.270Z,19.40
2018-08-25T10:47:59.592Z,19.60
2018-08-25T10:50:28.200Z,19.90
2018-08-25T10:52:56.429Z,20.20
2018-08-25T10:55:24.710Z,20.40
2018-08-25T10:57:52.974Z,20.10
2018-08-25T11:00:21.290Z,20.00
2018-08-25T11:02:49.443Z,20.20
2018-08-25T11:05:17.683Z,20.20
2018-08-25T11:07:46.184Z,20.30
2018-08-25T11:10:14.404Z,20.60
2018-08-25T11:12:42.741Z,20.90
2018-08-25T11:15:11.022Z,20.90
2018-08-25T11:17:39.609Z,20.80
2018-08-25T11:20:07.858Z,20.60
2018-08-25T11:22:36.063Z,20.20
2018-08-25T11:25:04.384Z,19.90
2018-08-25T11:27:32.638Z,19.70
2018-08-25T11:30:00.981Z,19.60
2018-08-25T11:32:29.239Z,19.60
2018-08-25T11:34:58.079Z,19.70
2018-08-25T11:37:26.513Z,19.60
2018-08-25T11:39:54.631Z,19.60
2018-08-25T11:42:22.842Z,19.40
2018-08-25T11:44:51.125Z,19.30
2018-08-25T11:47:19.383Z,19.30
2018-08-25T11:49:47.982Z,19.40
2018-08-25T11:52:16.262Z,19.60
2018-08-25T11:54:44.755Z,19.90
2018-08-25T11:57:13.049Z,20.50
2018-08-25T11:59:41.334Z,21.00
2018-08-25T12:02:09.626Z,21.30
2018-08-25T12:04:37.848Z,21.20
2018-08-25T12:07:06.329Z,21.00
2018-08-25T12:09:34.634Z,20.90
2018-08-25T12:12:02.902Z,21.00
2018-08-25T12:14:31.153Z,21.20
2018-08-25T12:16:59.485Z,21.60
2018-08-25T12:19:27.726Z,22.00
2018-08-25T12:21:55.978Z,21.90
2018-08-25T12:24:24.260Z,21.90
2018-08-25T12:26:54.125Z,22.20
2018-08-25T12:29:26.238Z,22.30
2018-08-25T12:31:54.545Z,22.60
2018-08-25T12:34:23.858Z,22.70
2018-08-25T12:36:52.077Z,22.30
2018-08-25T12:39:20.330Z,21.80
2018-08-25T12:41:48.675Z,21.10
2018-08-25T12:44:16.918Z,20.60
2018-08-25T12:46:45.361Z,19.90
2018-08-25T12:49:13.577Z,19.00
2018-08-25T12:51:41.819Z,18.30
2018-08-25T12:54:10.122Z,18.00
2018-08-25T12:56:38.331Z,17.60
2018-08-25T12:59:06.621Z,17.30
2018-08-25T13:01:34.809Z,17.20
2018-08-25T13:04:03.083Z,17.40
2018-08-25T13:06:31.327Z,17.50
2018-08-25T13:08:59.592Z,17.60
2018-08-25T13:11:27.856Z,17.80
2018-08-25T13:13:56.090Z,18.10
2018-08-25T13:16:24.619Z,18.20
2018-08-25T13:18:52.920Z,18.20
2018-08-25T13:21:21.121Z,18.30
2018-08-25T13:23:49.340Z,18.40
2018-08-25T13:26:17.598Z,18.60
2018-08-25T13:28:45.849Z,18.80
2018-08-25T13:31:14.190Z,18.90
2018-08-25T13:33:42.510Z,19.10
2018-08-25T13:36:10.789Z,19.20
2018-08-25T13:38:39.014Z,19.50
2018-08-25T13:41:07.916Z,19.40
2018-08-25T13:43:36.109Z,19.50
2018-08-25T13:46:04.406Z,19.50
2018-08-25T13:48:32.643Z,19.60
2018-08-25T13:51:00.951Z,19.50
2018-08-25T13:53:29.176Z,19.50
2018-08-25T13:56:00.285Z,19.60
2018-08-25T13:58:28.584Z,19.50
2018-08-25T14:00:57.100Z,19.40
2018-08-25T14:03:26.166Z,19.10
2018-08-25T14:05:54.406Z,18.80
2018-08-25T14:08:23.003Z,18.60
2018-08-25T14:10:57.701Z,18.40
2018-08-25T14:13:25.955Z,18.30
2018-08-25T14:15:54.195Z,18.30
2018-08-25T14:18:22.447Z,18.40
2018-08-25T14:20:50.709Z,18.30
2018-08-25T14:23:18.979Z,18.20
2018-08-25T14:25:47.193Z,18.00
2018-08-25T14:28:15.428Z,17.80
2018-08-25T14:30:43.652Z,18.00
2018-08-25T14:33:11.950Z,18.20
2018-08-25T14:35:40.250Z,18.40
2018-08-25T14:38:08.486Z,18.50
2018-08-25T14:40:36.781Z,18.80
2018-08-25T14:43:05.038Z,19.20
2018-08-25T14:45:33.255Z,19.50
2018-08-25T14:48:01.512Z,19.30
2018-08-25T14:50:29.754Z,19.00
2018-08-25T14:52:58.033Z,18.60
2018-08-25T14:55:26.303Z,18.30
2018-08-25T14:57:54.498Z,18.00
2018-08-25T15:00:23.051Z,17.80
2018-08-25T15:02:51.225Z,17.50
2018-08-25T15:05:19.552Z,17.40
2018-08-25T15:07:47.835Z,17.30
2018-08-25T15:10:16.074Z,17.40
2018-08-25T15:12:44.299Z,17.50
2018-08-25T15:15:12.511Z,17.60
2018-08-25T15:17:40.753Z,17.70
2018-08-25T15:20:09.019Z,17.80
2018-08-25T15:22:37.237Z,17.90
2018-08-25T15:25:05.771Z,17.80
2018-08-25T15:27:34.059Z,17.80
2018-08-25T15:30:02.342Z,17.80
2018-08-25T15:32:30.625Z,18.00
2018-08-25T15:35:05.652Z,18.20
2018-08-25T15:37:33.865Z,18.50
2018-08-25T15:40:02.337Z,18.80
2018-08-25T15:42:30.738Z,19.10
2018-08-25T15:44:58.988Z,19.20
2018-08-25T15:47:27.238Z,19.30
2018-08-25T15:49:55.610Z,19.30
2018-08-25T15:52:23.951Z,19.30
2018-08-25T15:54:52.533Z,19.30
2018-08-25T15:57:20.796Z,19.30
2018-08-25T15:59:49.073Z,19.20
2018-08-25T16:02:17.307Z,19.10
2018-08-25T16:04:45.674Z,19.10
2018-08-25T16:07:13.914Z,19.10
2018-08-25T16:09:43.231Z,19.10
2018-08-25T16:12:11.557Z,19.10
2018-08-25T16:14:40.055Z,18.90
2018-08-25T16:17:08.289Z,19.00
2018-08-25T16:19:36.620Z,19.10
2018-08-25T16:22:04.881Z,19.30
2018-08-25T16:24:33.118Z,19.20
2018-08-25T16:27:01.670Z,19.20
2018-08-25T16:29:29.926Z,19.10
2018-08-25T16:31:58.199Z,19.00
2018-08-25T16:34:26.511Z,18.90
2018-08-25T16:36:54.756Z,18.90
2018-08-25T16:39:23.124Z,18.80
2018-08-25T16:41:51.351Z,18.70
2018-08-25T16:44:19.568Z,18.60
2018-08-25T16:46:47.882Z,18.60
2018-08-25T16:49:16.266Z,18.70
2018-08-25T16:51:44.496Z,18.80
2018-08-25T16:54:12.762Z,18.90
2018-08-25T16:56:41.021Z,18.90
2018-08-25T16:59:09.322Z,18.80
2018-08-25T17:01:37.605Z,18.70
2018-08-25T17:04:06.483Z,18.60
2018-08-25T17:06:34.990Z,18.60
2018-08-25T17:09:05.007Z,18.60
2018-08-25T17:11:33.357Z,18.70
2018-08-25T17:14:01.591Z,18.60
2018-08-25T17:16:29.829Z,18.50
2018-08-25T17:18:58.205Z,18.60
2018-08-25T17:21:26.485Z,18.50
2018-08-25T17:23:54.784Z,18.50
2018-08-25T17:26:23.131Z,18.40
2018-08-25T17:28:51.491Z,18.30
2018-08-25T17:31:19.758Z,18.40
2018-08-25T17:33:48.070Z,18.40
2018-08-25T17:36:16.342Z,18.40
2018-08-25T17:38:45.128Z,18.40
2018-08-25T17:41:13.398Z,18.30
2018-08-25T17:43:41.661Z,18.30
2018-08-25T17:46:09.942Z,18.30
2018-08-25T17:48:38.219Z,18.20
2018-08-25T17:51:06.661Z,18.20
2018-08-25T17:53:34.891Z,18.20
2018-08-25T17:56:04.218Z,18.30
2018-08-25T17:58:32.491Z,18.30
2018-08-25T18:01:00.792Z,18.30
2018-08-25T18:03:29.206Z,18.30
2018-08-25T18:05:57.498Z,18.30
2018-08-25T18:08:26.346Z,18.30
2018-08-25T18:10:54.644Z,18.40
2018-08-25T18:13:23.053Z,18.40
2018-08-25T18:15:51.307Z,18.30
2018-08-25T18:18:19.522Z,18.30
2018-08-25T18:20:47.961Z,18.30
2018-08-25T18:23:16.403Z,18.20
2018-08-25T18:25:44.830Z,18.20
2018-08-25T18:28:13.536Z,18.10
2018-08-25T18:30:41.975Z,18.00
2018-08-25T18:33:10.325Z,17.90
2018-08-25T18:35:38.748Z,17.80
2018-08-25T18:38:07.040Z,17.70
2018-08-25T18:40:35.426Z,17.60
2018-08-25T18:43:03.619Z,17.50
2018-08-25T18:45:31.866Z,17.50
2018-08-25T18:48:00.114Z,17.50
2018-08-25T18:50:28.335Z,17.40
2018-08-25T18:52:56.573Z,17.40
2018-08-25T18:55:25.004Z,17.40
2018-08-25T18:57:53.222Z,17.40
2018-08-25T19:00:21.523Z,17.40
2018-08-25T19:02:49.792Z,17.40
2018-08-25T19:05:18.572Z,17.40
2018-08-25T19:07:46.838Z,17.30
2018-08-25T19:10:15.120Z,17.20
2018-08-25T19:12:43.346Z,17.20
2018-08-25T19:15:11.618Z,17.20
2018-08-25T19:17:39.954Z,17.20
2018-08-25T19:20:08.221Z,17.20
2018-08-25T19:22:36.503Z,17.20
2018-08-25T19:25:04.801Z,17.10
2018-08-25T19:27:33.053Z,17.00
2018-08-25T19:30:01.413Z,17.00
2018-08-25T19:32:29.748Z,17.00
2018-08-25T19:34:58.211Z,17.00
2018-08-25T19:37:26.708Z,17.00
2018-08-25T19:39:54.955Z,16.90
2018-08-25T19:42:23.195Z,16.90
2018-08-25T19:44:51.470Z,16.90
2018-08-25T19:47:19.918Z,16.90
2018-08-25T19:49:48.163Z,17.00
2018-08-25T19:52:16.435Z,17.00
2018-08-25T19:54:44.718Z,17.00
2018-08-25T19:57:13.093Z,17.00
2018-08-25T19:59:41.370Z,16.90
2018-08-25T20:02:09.591Z,16.80
2018-08-25T20:04:38.231Z,16.80
2018-08-25T20:07:06.476Z,16.80
2018-08-25T20:09:34.806Z,16.70
2018-08-25T20:12:03.551Z,16.60
2018-08-25T20:14:31.861Z,16.60
2018-08-25T20:17:00.143Z,16.50
2018-08-25T20:19:28.446Z,16.50
2018-08-25T20:21:56.702Z,16.50
2018-08-25T20:24:25.021Z,16.40
2018-08-25T20:26:53.359Z,16.40
2018-08-25T20:29:21.670Z,16.40
2018-08-25T20:31:49.918Z,16.30
2018-08-25T20:34:18.549Z,16.30
2018-08-25T20:36:46.809Z,16.30
2018-08-25T20:39:15.177Z,16.30
2018-08-25T20:41:43.409Z,16.30
2018-08-25T20:44:11.727Z,16.20
2018-08-25T20:46:40.076Z,16.20
2018-08-25T20:49:08.362Z,16.20
2018-08-25T20:51:36.793Z,16.20
2018-08-25T20:54:05.161Z,16.20
2018-08-25T20:56:33.585Z,16.20
2018-08-25T20:59:02.632Z,16.10
2018-08-25T21:01:31.090Z,16.10
2018-08-25T21:03:59.534Z,16.10
2018-08-25T21:06:28.140Z,16.10
2018-08-25T21:08:56.550Z,16.10
2018-08-25T21:11:24.759Z,16.20
2018-08-25T21:13:53.041Z,16.20
2018-08-25T21:16:21.319Z,16.20
2018-08-25T21:18:49.618Z,16.30
2018-08-25T21:21:18.144Z,16.30
2018-08-25T21:23:46.434Z,16.30
2018-08-25T21:28:49.346Z,16.40
2018-08-25T21:31:17.649Z,16.50
2018-08-25T21:33:46.055Z,16.50
2018-08-25T21:36:14.353Z,16.50
2018-08-25T21:38:43.158Z,16.50
2018-08-25T21:41:11.551Z,16.50
2018-08-25T21:43:40.250Z,16.50
2018-08-25T21:46:08.478Z,16.50
2018-08-25T21:48:36.694Z,16.50
2018-08-25T21:51:04.998Z,16.50
2018-08-25T21:53:33.411Z,16.50
2018-08-25T21:56:02.941Z,16.50
2018-08-25T21:58:31.296Z,16.50
2018-08-25T22:00:59.655Z,16.40
2018-08-25T22:03:28.593Z,16.40
2018-08-25T22:05:57.462Z,16.40
2018-08-25T22:08:26.002Z,16.40
2018-08-25T22:10:54.589Z,16.40
2018-08-25T22:13:22.900Z,16.40
2018-08-25T22:15:51.252Z,16.40
2018-08-25T22:18:20.294Z,16.30
2018-08-25T22:20:48.611Z,16.30
2018-08-25T22:23:17.369Z,16.20
2018-08-25T22:25:45.694Z,16.20
2018-08-25T22:28:14.033Z,16.20
2018-08-25T22:30:42.279Z,16.20
2018-08-25T22:33:10.534Z,16.20
2018-08-25T22:35:38.763Z,16.20
2018-08-25T22:38:07.017Z,16.20
2018-08-25T22:40:35.228Z,16.20
2018-08-25T22:43:03.522Z,16.20
2018-08-25T22:45:31.836Z,16.10
2018-08-25T22:48:00.050Z,16.10
2018-08-25T22:50:28.335Z,16.10
2018-08-25T22:52:56.578Z,16.10
2018-08-25T22:55:24.825Z,16.00
2018-08-25T22:57:53.111Z,16.00
2018-08-25T23:00:21.913Z,16.00
2018-08-25T23:02:50.160Z,16.00
2018-08-25T23:05:18.403Z,15.90
2018-08-25T23:07:46.654Z,15.90
2018-08-25T23:10:15.054Z,15.90
2018-08-25T23:12:43.350Z,15.90
2018-08-25T23:15:11.605Z,15.90
2018-08-25T23:17:39.873Z,15.90
2018-08-25T23:20:08.173Z,15.90
2018-08-25T23:22:36.407Z,15.90
2018-08-25T23:25:04.890Z,15.90
2018-08-25T23:27:33.222Z,15.90
2018-08-25T23:30:01.558Z,15.90
2018-08-25T23:32:29.815Z,15.90
2018-08-25T23:34:58.084Z,15.90
2018-08-25T23:37:26.335Z,15.90
2018-08-25T23:39:54.602Z,15.90
2018-08-25T23:42:22.834Z,15.80
2018-08-25T23:44:51.097Z,15.80
2018-08-25T23:47:19.306Z,15.80
2018-08-25T23:49:47.543Z,15.80
2018-08-25T23:52:15.777Z,15.80
2018-08-25T23:54:44.002Z,15.80
2018-08-25T23:57:12.271Z,15.70
2018-08-25T23:59:40.579Z,15.70
